Time;durP1;ratioP1;P1;durP2;ratioP2;P2;SDS_P1;SDS_P2;PMS_P1;PMS_P2;Temp;Humidity;BMP_temperature;BMP_pressure;BME280_temperature;BME280_humidity;BME280_pressure;Samples;Min_cycle;Max_cycle;Signal;HPM_P1;HPM_P2
2023/12/12 00:00:03;;;;;;;0.00;0.00;;;;;;;8.62;100.00;98430.81;5114135;28;20683;-52
2023/12/12 00:02:59;;;;;;;0.10;0.10;;;;;;;8.71;100.00;98451.31;5115363;28;20324;-52
2023/12/12 00:05:46;;;;;;;0.10;0.10;;;;;;;8.68;100.00;98452.34;5115372;28;20354;-52
2023/12/12 00:08:33;;;;;;;0.10;0.10;;;;;;;8.84;100.00;98454.81;5115508;28;20198;-52
2023/12/12 00:11:19;;;;;;;0.00;0.00;;;;;;;8.85;100.00;98445.94;5115428;28;20683;-52
2023/12/12 00:14:06;;;;;;;0.00;0.00;;;;;;;8.81;100.00;98439.19;5114156;28;20190;-52
2023/12/12 00:16:53;;;;;;;0.00;0.00;;;;;;;8.83;100.00;98440.75;5115084;28;20190;-52
2023/12/12 00:19:43;;;;;;;0.10;0.10;;;;;;;8.68;100.00;98441.78;5115243;28;20194;-52
2023/12/12 00:22:29;;;;;;;0.00;0.00;;;;;;;8.63;100.00;98448.34;5115268;28;20224;-52
2023/12/12 00:25:16;;;;;;;0.00;0.00;;;;;;;8.76;100.00;98443.91;5114901;28;20233;-52
2023/12/12 00:28:03;;;;;;;0.00;0.00;;;;;;;8.87;100.00;98442.22;5115017;28;20664;-52
2023/12/12 00:30:51;;;;;;;0.00;0.00;;;;;;;8.92;100.00;98449.00;5113840;28;20239;-52
2023/12/12 00:33:38;;;;;;;0.10;0.10;;;;;;;8.94;100.00;98442.66;5115035;28;20236;-52
2023/12/12 00:36:26;;;;;;;0.00;0.00;;;;;;;8.89;100.00;98455.34;5114958;28;20314;-52
2023/12/12 00:39:13;;;;;;;0.10;0.10;;;;;;;8.84;100.00;98453.00;5114854;28;20194;-52
2023/12/12 00:42:00;;;;;;;0.10;0.10;;;;;;;8.86;100.00;98453.75;5114858;28;20194;-51
2023/12/12 00:44:47;;;;;;;0.07;0.07;;;;;;;8.81;100.00;98457.66;5113253;28;20288;-52
2023/12/12 00:47:34;;;;;;;0.10;0.10;;;;;;;8.77;100.00;98451.72;5114728;28;20194;-52
2023/12/12 00:50:21;;;;;;;0.03;0.03;;;;;;;8.70;100.00;98455.75;5114732;28;20197;-52
2023/12/12 00:53:10;;;;;;;0.10;0.10;;;;;;;8.77;100.00;98453.53;5114690;28;20553;-52
2023/12/12 00:55:57;;;;;;;0.00;0.00;;;;;;;8.78;100.00;98452.56;5114674;28;20277;-52
2023/12/12 00:58:43;;;;;;;0.00;0.00;;;;;;;8.80;100.00;98446.25;5113218;28;20236;-52
2023/12/12 01:01:30;;;;;;;0.00;0.00;;;;;;;8.84;100.00;98450.38;5114486;28;20236;-52
2023/12/12 01:04:17;;;;;;;0.00;0.00;;;;;;;8.69;100.00;98450.59;5114226;28;20210;-52
2023/12/12 01:07:04;;;;;;;0.00;0.00;;;;;;;8.60;100.00;98458.16;5114305;28;20198;-52
2023/12/12 01:09:52;;;;;;;0.00;0.00;;;;;;;8.62;100.00;98451.94;5114444;28;20189;-52
2023/12/12 01:12:39;;;;;;;0.00;0.00;;;;;;;8.62;100.00;98455.44;5114281;28;20269;-52
2023/12/12 01:15:26;;;;;;;0.00;0.00;;;;;;;8.45;100.00;98455.69;5112894;28;20186;-52
2023/12/12 01:18:13;;;;;;;0.00;0.00;;;;;;;8.48;100.00;98447.56;5113870;28;20226;-52
2023/12/12 01:20:59;;;;;;;0.00;0.00;;;;;;;8.52;100.00;98449.91;5114228;28;20252;-52
2023/12/12 01:23:50;;;;;;;0.10;0.10;;;;;;;8.49;100.00;98447.50;5114104;28;20240;-52
2023/12/12 01:26:39;;;;;;;0.00;0.00;;;;;;;8.47;100.00;98452.00;5113850;28;20210;-52
2023/12/12 01:29:25;;;;;;;0.00;0.00;;;;;;;8.38;100.00;98452.63;5112665;28;20194;-52
2023/12/12 01:32:12;;;;;;;0.03;0.03;;;;;;;8.33;100.00;98444.16;5113815;28;20209;-52
2023/12/12 01:34:59;;;;;;;0.00;0.00;;;;;;;8.38;100.00;98442.06;5113809;28;20676;-52
2023/12/12 01:37:46;;;;;;;0.00;0.00;;;;;;;8.40;100.00;98437.56;5113922;28;20194;-53
2023/12/12 01:40:33;;;;;;;0.00;0.00;;;;;;;8.19;100.00;98449.47;5113835;28;20190;-53
2023/12/12 01:43:25;;;;;;;0.00;0.00;;;;;;;7.83;100.00;98450.09;5113588;28;20198;-53
2023/12/12 01:46:15;;;;;;;0.00;0.00;;;;;;;7.92;100.00;98452.97;5113372;28;20386;-52
2023/12/12 01:49:02;;;;;;;0.10;0.10;;;;;;;7.93;100.00;98459.09;5113224;28;20403;-53
2023/12/12 01:51:49;;;;;;;0.00;0.00;;;;;;;8.00;100.00;98450.66;5113916;28;20206;-52
2023/12/12 01:54:40;;;;;;;0.00;0.00;;;;;;;7.91;100.00;98447.78;5113588;28;20202;-52
2023/12/12 01:57:27;;;;;;;0.10;0.10;;;;;;;7.83;100.00;98453.56;5112547;28;20236;-53
2023/12/12 02:00:16;;;;;;;0.10;0.10;;;;;;;7.82;100.00;98453.66;5112275;28;20664;-52
2023/12/12 02:03:02;;;;;;;0.10;0.10;;;;;;;7.85;100.00;98450.81;5113012;28;20193;-53
2023/12/12 02:05:49;;;;;;;0.00;0.00;;;;;;;7.94;100.00;98448.44;5113170;28;20220;-52
2023/12/12 02:08:37;;;;;;;0.00;0.00;;;;;;;7.91;100.00;98445.13;5113274;28;20309;-52
2023/12/12 02:11:25;;;;;;;0.00;0.00;;;;;;;7.90;100.00;98436.38;5113167;28;20263;-52
2023/12/12 02:14:11;;;;;;;0.10;0.10;;;;;;;7.84;100.00;98443.88;5112018;28;20198;-52
2023/12/12 02:17:00;;;;;;;0.00;0.00;;;;;;;7.73;100.00;98444.56;5112986;28;20186;-52
2023/12/12 02:19:47;;;;;;;0.00;0.00;;;;;;;7.58;100.00;98442.88;5112975;28;20299;-53
2023/12/12 02:22:35;;;;;;;0.00;0.00;;;;;;;7.58;100.00;98445.53;5113403;28;20194;-52
2023/12/12 02:25:22;;;;;;;0.00;0.00;;;;;;;7.52;100.00;98448.53;5112938;28;20214;-52
2023/12/12 02:28:09;;;;;;;0.00;0.00;;;;;;;7.53;100.00;98445.81;5112971;28;20194;-53
2023/12/12 02:30:56;;;;;;;0.10;0.10;;;;;;;7.44;100.00;98446.41;5112954;28;20189;-52
2023/12/12 02:33:43;;;;;;;0.10;0.10;;;;;;;7.45;100.00;98446.31;5113193;28;20194;-52
2023/12/12 02:36:30;;;;;;;0.00;0.00;;;;;;;7.48;100.00;98450.53;5112794;28;20562;-52
2023/12/12 02:39:18;;;;;;;0.00;0.00;;;;;;;7.37;100.00;98453.84;5112754;28;20357;-52
2023/12/12 02:42:05;;;;;;;0.00;0.00;;;;;;;7.37;100.00;98456.47;5112945;28;20190;-52
2023/12/12 02:44:52;;;;;;;0.03;0.03;;;;;;;7.30;100.00;98447.25;5111286;28;20696;-53
2023/12/12 02:47:39;;;;;;;0.03;0.03;;;;;;;7.35;100.00;98457.50;5112921;28;20285;-52
2023/12/12 02:50:26;;;;;;;0.00;0.00;;;;;;;7.29;100.00;98455.25;5112838;28;20660;-53
2023/12/12 02:53:14;;;;;;;0.00;0.00;;;;;;;7.33;100.00;98448.84;5112847;28;20255;-53
2023/12/12 02:56:02;;;;;;;0.10;0.10;;;;;;;7.34;100.00;98450.56;5113047;28;20194;-52
2023/12/12 02:58:49;;;;;;;0.10;0.10;;;;;;;7.39;100.00;98459.84;5111750;28;20202;-52
2023/12/12 03:01:35;;;;;;;0.10;0.10;;;;;;;7.30;100.00;98460.41;5115796;28;20324;-52
2023/12/12 03:04:22;;;;;;;0.00;0.00;;;;;;;7.22;100.00;98467.09;5116694;28;20194;-52
2023/12/12 03:07:09;;;;;;;0.03;0.03;;;;;;;7.21;100.00;98460.13;5116376;28;20217;-52
2023/12/12 03:09:56;;;;;;;0.10;0.10;;;;;;;7.30;100.00;98456.94;5116503;28;20202;-52
2023/12/12 03:12:45;;;;;;;0.00;0.00;;;;;;;7.45;100.00;98454.22;5116624;28;20236;-52
2023/12/12 03:15:31;;;;;;;0.10;0.10;;;;;;;7.29;100.00;98456.09;5115153;28;20661;-52
2023/12/12 03:18:18;;;;;;;0.00;0.00;;;;;;;7.30;100.00;98459.56;5116174;28;20328;-52
2023/12/12 03:21:06;;;;;;;0.10;0.10;;;;;;;7.23;100.00;98451.19;5116618;28;20190;-52
2023/12/12 03:23:52;;;;;;;0.07;0.07;;;;;;;7.18;100.00;98455.91;5116381;28;20242;-52
2023/12/12 03:26:39;;;;;;;0.10;0.10;;;;;;;7.13;100.00;98457.97;5115943;28;20217;-52
2023/12/12 03:29:28;;;;;;;0.00;0.00;;;;;;;7.23;100.00;98458.25;5115146;28;20202;-52
2023/12/12 03:32:18;;;;;;;0.10;0.10;;;;;;;7.30;100.00;98457.78;5116043;28;20197;-52
2023/12/12 03:35:05;;;;;;;0.00;0.00;;;;;;;7.27;100.00;98457.97;5116083;28;20198;-52
2023/12/12 03:37:52;;;;;;;0.00;0.00;;;;;;;7.03;100.00;98462.09;5116179;28;20672;-52
2023/12/12 03:40:39;;;;;;;0.10;0.10;;;;;;;6.97;100.00;98473.03;5116202;28;20239;-51
2023/12/12 03:43:26;;;;;;;0.00;0.00;;;;;;;7.09;100.00;98470.47;5115085;28;20198;-52
2023/12/12 03:46:14;;;;;;;0.00;0.00;;;;;;;7.35;100.00;98465.41;5116134;28;20585;-52
2023/12/12 03:49:01;;;;;;;0.10;0.10;;;;;;;7.05;100.00;98463.72;5116084;28;20189;-52
2023/12/12 03:51:48;;;;;;;0.10;0.10;;;;;;;7.09;100.00;98461.75;5115743;28;20199;-53
2023/12/12 03:54:35;;;;;;;0.10;0.10;;;;;;;7.24;100.00;98465.19;5115842;28;20202;-53
2023/12/12 03:57:22;;;;;;;0.00;0.00;;;;;;;7.17;100.00;98457.69;5115827;28;20213;-52
2023/12/12 04:00:10;;;;;;;0.00;0.00;;;;;;;7.18;100.00;98453.28;5114208;28;20255;-52
2023/12/12 04:03:01;;;;;;;0.10;0.10;;;;;;;7.31;100.00;98454.19;5115482;28;20208;-52
2023/12/12 04:05:48;;;;;;;0.10;0.10;;;;;;;7.24;100.00;98450.28;5115326;28;20214;-52
2023/12/12 04:08:36;;;;;;;0.00;0.00;;;;;;;7.26;100.00;98450.19;5115567;28;20255;-52
2023/12/12 04:11:23;;;;;;;0.00;0.00;;;;;;;7.49;100.00;98449.56;5115050;28;20245;-53
2023/12/12 04:14:10;;;;;;;0.00;0.00;;;;;;;7.57;100.00;98451.72;5114084;28;20185;-52
2023/12/12 04:16:57;;;;;;;0.10;0.10;;;;;;;7.47;100.00;98448.84;5115172;28;20232;-52
2023/12/12 04:19:45;;;;;;;0.10;0.10;;;;;;;7.41;100.00;98439.50;5115389;28;20665;-51
2023/12/12 04:22:32;;;;;;;0.00;0.00;;;;;;;7.44;100.00;98435.88;5115276;28;20317;-52
2023/12/12 04:25:20;;;;;;;0.03;0.03;;;;;;;7.41;100.00;98430.78;5115248;28;20202;-52
2023/12/12 04:28:08;;;;;;;0.10;0.10;;;;;;;7.50;100.00;98422.28;5115283;28;20259;-52
2023/12/12 04:30:55;;;;;;;0.00;0.00;;;;;;;7.74;100.00;98425.16;5115177;28;20194;-52
2023/12/12 04:33:41;;;;;;;0.10;0.10;;;;;;;7.64;100.00;98422.28;5115116;28;20201;-52
2023/12/12 04:36:30;;;;;;;0.03;0.03;;;;;;;7.74;100.00;98412.81;5114951;28;20194;-52
2023/12/12 04:39:17;;;;;;;0.10;0.10;;;;;;;7.78;100.00;98405.56;5114862;28;20194;-52
2023/12/12 04:42:04;;;;;;;0.10;0.10;;;;;;;7.92;100.00;98402.88;5114909;28;20346;-52
2023/12/12 04:44:51;;;;;;;0.03;0.03;;;;;;;7.84;100.00;98402.53;5113557;28;20189;-52
2023/12/12 04:47:38;;;;;;;0.10;0.10;;;;;;;7.62;100.00;98391.66;5114485;28;20264;-53
2023/12/12 04:50:25;;;;;;;0.07;0.07;;;;;;;7.49;100.00;98386.34;5114686;28;20236;-53
2023/12/12 04:53:13;;;;;;;0.00;0.00;;;;;;;7.42;100.00;98385.88;5114701;28;20232;-52
2023/12/12 04:56:00;;;;;;;0.00;0.00;;;;;;;7.57;100.00;98394.59;5114640;28;20198;-53
2023/12/12 04:58:47;;;;;;;0.10;0.10;;;;;;;7.57;100.00;98385.84;5113198;28;20316;-52
2023/12/12 05:01:34;;;;;;;0.00;0.00;;;;;;;7.74;100.00;98390.91;5114475;28;20744;-52
2023/12/12 05:04:21;;;;;;;0.00;0.00;;;;;;;7.71;100.00;98378.75;5113563;28;20194;-52
2023/12/12 05:07:07;;;;;;;0.10;0.10;;;;;;;7.70;100.00;98382.31;5114210;28;20221;-52
2023/12/12 05:09:56;;;;;;;0.00;0.00;;;;;;;7.32;100.00;98374.25;5114436;28;20274;-52
2023/12/12 05:12:42;;;;;;;0.10;0.10;;;;;;;7.26;100.00;98384.34;5114154;28;20190;-52
2023/12/12 05:15:29;;;;;;;0.00;0.00;;;;;;;7.41;100.00;98385.97;5113001;28;20641;-52
2023/12/12 05:18:16;;;;;;;0.00;0.00;;;;;;;7.10;100.00;98384.44;5113820;28;20267;-52
2023/12/12 05:21:03;;;;;;;0.10;0.10;;;;;;;7.16;100.00;98386.69;5114257;28;20392;-52
2023/12/12 05:23:50;;;;;;;0.00;0.00;;;;;;;7.30;100.00;98384.03;5113140;28;20197;-52
2023/12/12 05:26:39;;;;;;;0.00;0.00;;;;;;;7.38;100.00;98378.28;5113942;28;20221;-52
2023/12/12 05:29:25;;;;;;;0.00;0.00;;;;;;;7.27;100.00;98386.88;5112550;28;20324;-52
2023/12/12 05:32:13;;;;;;;0.00;0.00;;;;;;;7.13;100.00;98385.09;5113842;28;20194;-52
2023/12/12 05:34:59;;;;;;;0.00;0.00;;;;;;;6.94;100.00;98383.69;5113935;28;20742;-52
2023/12/12 05:37:46;;;;;;;0.00;0.00;;;;;;;6.86;100.00;98384.19;5113816;28;20185;-52
2023/12/12 05:40:33;;;;;;;0.10;0.10;;;;;;;6.81;100.00;98394.13;5113906;28;20284;-53
2023/12/12 05:43:21;;;;;;;0.10;0.10;;;;;;;6.92;100.00;98389.06;5113318;28;20213;-52
2023/12/12 05:46:09;;;;;;;0.00;0.00;;;;;;;7.07;100.00;98393.38;5113922;28;20236;-53
2023/12/12 05:48:56;;;;;;;0.00;0.00;;;;;;;7.09;100.00;98383.59;5113943;28;20656;-52
2023/12/12 05:51:43;;;;;;;0.10;0.10;;;;;;;6.98;100.00;98378.16;5113874;28;20189;-52
2023/12/12 05:54:29;;;;;;;0.10;0.10;;;;;;;7.13;100.00;98379.81;5113715;28;20202;-52
2023/12/12 05:57:17;;;;;;;0.10;0.10;;;;;;;7.04;100.00;98379.53;5113739;28;20196;-52
2023/12/12 06:00:06;;;;;;;0.00;0.00;;;;;;;7.13;100.00;98378.97;5112343;28;20637;-51
2023/12/12 06:02:59;;;;;;;0.10;0.10;;;;;;;7.35;100.00;98386.41;5113497;28;20194;-52
2023/12/12 06:05:46;;;;;;;0.10;0.10;;;;;;;7.17;100.00;98389.22;5113281;28;20206;-52
2023/12/12 06:08:33;;;;;;;0.00;0.00;;;;;;;7.08;100.00;98388.97;5113088;28;20214;-52
2023/12/12 06:11:21;;;;;;;0.00;0.00;;;;;;;6.96;100.00;98373.94;5113283;28;20194;-52
2023/12/12 06:14:08;;;;;;;0.10;0.10;;;;;;;7.03;100.00;98383.13;5111892;28;20185;-52
2023/12/12 06:16:56;;;;;;;0.10;0.10;;;;;;;6.70;100.00;98376.38;5113196;28;20205;-51
2023/12/12 06:19:43;;;;;;;0.00;0.00;;;;;;;6.84;100.00;98365.81;5113052;28;20193;-52
2023/12/12 06:22:30;;;;;;;0.00;0.00;;;;;;;6.92;100.00;98367.16;5113188;28;20206;-52
2023/12/12 06:25:16;;;;;;;0.00;0.00;;;;;;;7.00;100.00;98381.53;5113254;28;20213;-52
2023/12/12 06:28:04;;;;;;;0.10;0.10;;;;;;;7.13;100.00;98376.34;5112731;28;20221;-52
2023/12/12 06:30:51;;;;;;;0.10;0.10;;;;;;;6.92;100.00;98370.63;5113316;28;20242;-52
2023/12/12 06:33:39;;;;;;;0.00;0.00;;;;;;;7.02;100.00;98374.38;5113393;28;20191;-52
2023/12/12 06:36:26;;;;;;;0.10;0.10;;;;;;;6.80;100.00;98380.13;5117192;28;20202;-52
2023/12/12 06:39:14;;;;;;;0.00;0.00;;;;;;;6.79;100.00;98374.97;5117445;28;20194;-52
2023/12/12 06:42:01;;;;;;;0.00;0.00;;;;;;;6.88;100.00;98377.88;5117443;28;20214;-52
2023/12/12 06:44:48;;;;;;;0.00;0.00;;;;;;;6.70;100.00;98375.53;5116002;28;20220;-52
2023/12/12 06:47:35;;;;;;;0.00;0.00;;;;;;;6.69;100.00;98377.31;5117063;28;20229;-52
2023/12/12 06:50:24;;;;;;;0.00;0.00;;;;;;;6.42;100.00;98385.06;5117174;28;20194;-52
2023/12/12 06:53:10;;;;;;;0.10;0.10;;;;;;;6.32;100.00;98390.03;5116791;28;20468;-52
2023/12/12 06:55:57;;;;;;;0.00;0.00;;;;;;;6.60;100.00;98393.66;5116975;28;20300;-52
2023/12/12 06:58:44;;;;;;;0.00;0.00;;;;;;;6.48;100.00;98395.25;5115560;28;20247;-52
2023/12/12 07:01:31;;;;;;;0.00;0.00;;;;;;;6.55;100.00;98393.91;5116644;28;20210;-52
2023/12/12 07:04:18;;;;;;;0.10;0.10;;;;;;;6.60;100.00;98402.38;5116808;28;20193;-53
2023/12/12 07:07:06;;;;;;;0.10;0.10;;;;;;;6.58;100.00;98401.63;5116756;28;20190;-52
2023/12/12 07:09:53;;;;;;;0.10;0.10;;;;;;;6.52;100.00;98404.63;5116704;28;20189;-53
2023/12/12 07:12:45;;;;;;;0.10;0.10;;;;;;;6.54;100.00;98405.38;5116365;28;20270;-53
2023/12/12 07:15:33;;;;;;;0.00;0.00;;;;;;;6.67;100.00;98402.03;5115247;28;20197;-52
2023/12/12 07:18:20;;;;;;;0.00;0.00;;;;;;;6.56;100.00;98410.53;5116114;28;20276;-53
2023/12/12 07:21:07;;;;;;;0.10;0.10;;;;;;;6.56;100.00;98407.91;5117319;28;20202;-53
2023/12/12 07:23:56;;;;;;;0.00;0.00;;;;;;;6.53;100.00;98406.31;5116516;28;20214;-53
2023/12/12 07:26:44;;;;;;;0.10;0.10;;;;;;;6.45;100.00;98398.03;5116389;28;20202;-53
2023/12/12 07:29:32;;;;;;;0.00;0.00;;;;;;;6.83;100.00;98394.88;5114953;28;20210;-52
2023/12/12 07:32:19;;;;;;;0.10;0.10;;;;;;;6.93;100.00;98392.53;5116167;28;20275;-53
2023/12/12 07:35:06;;;;;;;0.10;0.10;;;;;;;6.91;100.00;98394.41;5116095;28;20185;-53
2023/12/12 07:37:53;;;;;;;0.00;0.00;;;;;;;6.81;100.00;98388.88;5116203;28;20297;-52
2023/12/12 07:40:41;;;;;;;0.00;0.00;;;;;;;6.72;100.00;98386.78;5115934;28;20721;-52
2023/12/12 07:43:30;;;;;;;0.10;0.10;;;;;;;6.81;100.00;98380.97;5114719;28;20210;-53
2023/12/12 07:46:17;;;;;;;0.00;0.00;;;;;;;7.07;100.00;98382.84;5115261;28;20202;-53
2023/12/12 07:49:04;;;;;;;0.10;0.10;;;;;;;6.94;100.00;98378.41;5115698;28;20707;-52
2023/12/12 07:51:51;;;;;;;0.00;0.00;;;;;;;6.86;100.00;98374.50;5115841;28;20238;-53
2023/12/12 07:54:38;;;;;;;0.00;0.00;;;;;;;6.99;100.00;98376.38;5115907;28;20197;-53
2023/12/12 07:57:26;;;;;;;0.10;0.10;;;;;;;7.04;100.00;98376.91;5115952;28;20201;-52
2023/12/12 08:00:14;;;;;;;0.00;0.00;;;;;;;7.14;100.00;98365.72;5113460;28;20198;-53
2023/12/12 08:03:03;;;;;;;0.00;0.00;;;;;;;7.16;100.00;98363.00;5115586;28;20415;-52
2023/12/12 08:05:50;;;;;;;0.00;0.00;;;;;;;7.10;100.00;98363.38;5115341;28;20232;-53
2023/12/12 08:08:37;;;;;;;0.00;0.00;;;;;;;7.09;100.00;98370.44;5114973;28;20254;-52
2023/12/12 08:11:27;;;;;;;0.00;0.00;;;;;;;7.21;100.00;98375.88;5115652;28;20191;-53
2023/12/12 08:14:15;;;;;;;0.10;0.10;;;;;;;7.37;100.00;98366.06;5114231;28;20190;-53
2023/12/12 08:17:02;;;;;;;0.10;0.10;;;;;;;7.61;100.00;98364.47;5115126;28;20766;-52
2023/12/12 08:19:49;;;;;;;0.07;0.07;;;;;;;7.84;100.00;98365.63;5115223;28;20189;-53
2023/12/12 08:22:37;;;;;;;0.00;0.00;;;;;;;8.09;100.00;98362.19;5115273;28;20181;-53
2023/12/12 08:25:24;;;;;;;0.00;0.00;;;;;;;8.21;100.00;98358.75;5115299;28;20275;-53
2023/12/12 08:28:11;;;;;;;0.10;0.10;;;;;;;8.41;100.00;98357.44;5115187;28;20263;-53
2023/12/12 08:30:59;;;;;;;0.00;0.00;;;;;;;8.49;100.00;98349.84;5115108;28;20198;-52
2023/12/12 08:33:46;;;;;;;0.00;0.00;;;;;;;8.21;100.00;98348.22;5115090;28;20235;-53
2023/12/12 08:36:33;;;;;;;0.00;0.00;;;;;;;8.31;100.00;98344.00;5115085;28;20186;-52
2023/12/12 08:39:20;;;;;;;0.00;0.00;;;;;;;8.48;100.00;98353.41;5114926;28;20238;-53
2023/12/12 08:42:06;;;;;;;0.00;0.00;;;;;;;8.54;100.00;98354.78;5114962;28;20193;-53
2023/12/12 08:44:54;;;;;;;0.00;0.00;;;;;;;8.43;100.00;98349.41;5113533;28;20205;-53
2023/12/12 08:47:42;;;;;;;0.00;0.00;;;;;;;8.23;100.00;98350.75;5114625;28;20256;-53
2023/12/12 08:50:29;;;;;;;0.00;0.00;;;;;;;8.03;100.00;98350.28;5114823;28;20191;-53
2023/12/12 08:53:16;;;;;;;0.10;0.10;;;;;;;7.94;100.00;98342.97;5114958;28;20206;-53
2023/12/12 08:56:04;;;;;;;0.00;0.00;;;;;;;8.10;100.00;98344.56;5114565;28;20224;-52
2023/12/12 08:58:51;;;;;;;0.00;0.00;;;;;;;7.69;100.00;98356.91;5112274;28;20182;-52
2023/12/12 09:01:38;;;;;;;0.00;0.00;;;;;;;7.89;100.00;98352.97;5113472;28;20191;-52
2023/12/12 09:04:27;;;;;;;0.00;0.00;;;;;;;7.76;100.00;98344.19;5114335;28;20247;-53
2023/12/12 09:07:13;;;;;;;0.03;0.03;;;;;;;7.67;100.00;98350.06;5114422;28;20738;-52
2023/12/12 09:10:00;;;;;;;0.00;0.00;;;;;;;7.61;100.00;98345.19;5114098;28;20436;-53
2023/12/12 09:12:47;;;;;;;0.07;0.07;;;;;;;7.57;100.00;98338.44;5114427;28;20313;-52
2023/12/12 09:15:34;;;;;;;0.00;0.00;;;;;;;8.21;100.00;98342.09;5112920;28;20205;-52
2023/12/12 09:18:21;;;;;;;0.00;0.00;;;;;;;8.55;100.00;98344.13;5113910;28;20333;-52
2023/12/12 09:21:10;;;;;;;0.10;0.10;;;;;;;8.92;100.00;98332.81;5114028;28;20190;-53
2023/12/12 09:23:56;;;;;;;0.10;0.10;;;;;;;8.99;100.00;98324.34;5114252;28;20256;-53
2023/12/12 09:26:44;;;;;;;0.03;0.03;;;;;;;9.15;100.00;98317.00;5114073;28;20266;-53
2023/12/12 09:29:31;;;;;;;0.00;0.00;;;;;;;9.35;100.00;98317.38;5112254;28;20222;-53
2023/12/12 09:32:17;;;;;;;0.00;0.00;;;;;;;9.10;100.00;98303.28;5113937;28;20297;-52
2023/12/12 09:35:06;;;;;;;0.00;0.00;;;;;;;8.65;100.00;98311.81;5113945;28;20190;-53
2023/12/12 09:37:54;;;;;;;0.00;0.00;;;;;;;8.71;100.00;98301.69;5113744;28;20549;-52
2023/12/12 09:40:41;;;;;;;0.00;0.00;;;;;;;8.42;100.00;98305.50;5113846;28;20252;-53
2023/12/12 09:43:29;;;;;;;0.00;0.00;;;;;;;8.11;100.00;98306.72;5112543;28;20289;-52
2023/12/12 09:46:16;;;;;;;0.00;0.00;;;;;;;8.47;100.00;98298.94;5113564;28;20190;-53
2023/12/12 09:49:08;;;;;;;0.00;0.00;;;;;;;8.37;100.00;98297.06;5113340;28;20317;-52
2023/12/12 09:51:57;;;;;;;0.00;0.00;;;;;;;8.39;100.00;98290.72;5112372;28;20194;-53
2023/12/12 09:54:47;;;;;;;0.00;0.00;;;;;;;8.42;100.00;98284.41;5113643;28;20198;-52
2023/12/12 09:57:34;;;;;;;0.00;0.00;;;;;;;8.31;100.00;98270.13;5113414;28;20198;-52
2023/12/12 10:00:22;;;;;;;0.00;0.00;;;;;;;8.45;100.00;98269.19;5112117;28;20232;-53
2023/12/12 10:03:09;;;;;;;0.00;0.00;;;;;;;8.65;100.00;98269.59;5113301;28;20743;-52
2023/12/12 10:05:58;;;;;;;0.00;0.00;;;;;;;8.43;100.00;98257.06;5113312;28;20206;-52
2023/12/12 10:08:44;;;;;;;0.00;0.00;;;;;;;8.53;100.00;98252.81;5112866;28;20206;-52
2023/12/12 10:11:33;;;;;;;0.00;0.00;;;;;;;8.56;100.00;98244.69;5113338;28;20193;-52
2023/12/12 10:14:37;;;;;;;0.10;0.10;;;;;;;8.49;100.00;98241.66;5112009;28;20194;-53
2023/12/12 10:17:25;;;;;;;0.10;0.10;;;;;;;8.79;100.00;98228.06;5112971;28;20304;-52
2023/12/12 10:20:13;;;;;;;0.00;0.00;;;;;;;9.35;100.00;98233.66;5113064;28;20198;-52
2023/12/12 10:23:02;;;;;;;0.00;0.00;;;;;;;9.27;100.00;98233.41;5112957;28;20202;-52
2023/12/12 10:25:49;;;;;;;0.00;0.00;;;;;;;9.33;100.00;98219.72;5111872;28;20211;-53
2023/12/12 10:28:38;;;;;;;0.00;0.00;;;;;;;9.51;100.00;98206.09;5111959;28;20734;-52
2023/12/12 10:31:25;;;;;;;0.00;0.00;;;;;;;9.80;100.00;98198.59;5113060;28;20199;-53
2023/12/12 10:34:12;;;;;;;0.10;0.10;;;;;;;9.64;100.00;98185.69;5112756;28;20202;-53
2023/12/12 10:37:01;;;;;;;0.00;0.00;;;;;;;9.49;100.00;98181.56;5113177;28;20323;-53
2023/12/12 10:39:49;;;;;;;0.00;0.00;;;;;;;9.40;100.00;98178.66;5113132;28;20267;-53
2023/12/12 10:42:35;;;;;;;0.00;0.00;;;;;;;9.30;100.00;98172.38;5112639;28;20264;-53
2023/12/12 10:45:27;;;;;;;0.00;0.00;;;;;;;9.12;100.00;98171.09;5111524;28;20312;-53
2023/12/12 10:48:19;;;;;;;0.00;0.00;;;;;;;9.00;100.00;98174.66;5112791;28;20190;-52
2023/12/12 10:51:07;;;;;;;0.00;0.00;;;;;;;9.17;100.00;98164.53;5112824;28;20649;-53
2023/12/12 10:53:56;;;;;;;0.00;0.00;;;;;;;9.28;100.00;98166.38;5112543;28;20210;-53
2023/12/12 10:56:44;;;;;;;0.00;0.00;;;;;;;8.81;100.00;98160.16;5112882;28;20199;-53
2023/12/12 10:59:33;;;;;;;0.00;0.00;;;;;;;9.04;100.00;98162.91;5111412;28;20183;-53
2023/12/12 11:02:44;;;;;;;0.00;0.00;;;;;;;9.26;100.00;98151.56;5112728;28;20236;-53
2023/12/12 11:05:31;;;;;;;0.00;0.00;;;;;;;8.92;100.00;98155.88;5112655;28;20202;-53
2023/12/12 11:08:19;;;;;;;0.00;0.00;;;;;;;8.84;100.00;98148.53;5112416;28;20194;-52
2023/12/12 11:11:10;;;;;;;0.10;0.10;;;;;;;8.83;100.00;98147.69;5112269;28;20673;-53
2023/12/12 11:14:00;;;;;;;0.00;0.00;;;;;;;8.79;100.00;98150.66;5124709;27;20256;-53
2023/12/12 11:16:50;;;;;;;0.10;0.10;;;;;;;8.73;100.00;98145.81;5112487;28;20261;-52
2023/12/12 11:19:40;;;;;;;0.10;0.10;;;;;;;8.81;100.00;98146.13;5112562;28;20219;-52
2023/12/12 11:22:42;;;;;;;0.10;0.10;;;;;;;8.80;100.00;98128.59;5115600;28;20288;-53
2023/12/12 11:25:32;;;;;;;0.00;0.00;;;;;;;9.00;100.00;98130.59;5116439;28;20185;-53
2023/12/12 11:28:19;;;;;;;0.00;0.00;;;;;;;8.89;100.00;98127.91;5115089;28;20190;-53
2023/12/12 11:31:08;;;;;;;0.00;0.00;;;;;;;8.93;100.00;98129.38;5115984;28;20214;-52
2023/12/12 11:34:05;;;;;;;0.10;0.10;;;;;;;8.98;100.00;98131.69;5116308;28;20245;-53
2023/12/12 11:36:58;;;;;;;0.10;0.10;;;;;;;8.91;100.00;98118.06;5116021;28;20680;-53
2023/12/12 11:39:49;;;;;;;0.03;0.03;;;;;;;8.96;100.00;98118.56;5116182;28;20699;-52
2023/12/12 11:42:36;;;;;;;0.10;0.10;;;;;;;9.11;100.00;98112.16;5116111;28;20202;-52
2023/12/12 11:45:31;;;;;;;0.10;0.10;;;;;;;9.11;100.00;98101.59;5114576;28;20208;-52
2023/12/12 11:48:19;;;;;;;0.00;0.00;;;;;;;9.65;100.00;98098.34;5116137;28;20213;-53
2023/12/12 11:51:38;;;;;;;0.00;0.00;;;;;;;9.53;100.00;98086.06;5115741;28;20217;-53
2023/12/12 11:54:26;;;;;;;0.10;0.10;;;;;;;9.79;100.00;98070.81;5115715;28;20214;-52
2023/12/12 11:57:13;;;;;;;0.00;0.00;;;;;;;9.70;100.00;98067.09;5115909;28;20199;-53
2023/12/12 12:00:01;;;;;;;0.00;0.00;;;;;;;9.73;100.00;98064.22;5114288;28;20297;-52
2023/12/12 12:02:50;;;;;;;0.00;0.00;;;;;;;9.95;100.00;98057.25;5115624;28;20194;-53
2023/12/12 12:05:37;;;;;;;0.10;0.10;;;;;;;10.18;100.00;98058.06;5115861;28;20224;-53
2023/12/12 12:08:24;;;;;;;0.00;0.00;;;;;;;10.74;100.00;98047.34;5115153;28;20206;-53
2023/12/12 12:11:13;;;;;;;0.07;0.07;;;;;;;11.00;100.00;98037.22;5115124;28;20229;-53
2023/12/12 12:14:00;;;;;;;0.00;0.00;;;;;;;11.14;100.00;98024.50;5114000;28;20673;-53
2023/12/12 12:16:48;;;;;;;0.00;0.00;;;;;;;10.72;100.00;98023.66;5115056;28;20228;-52
2023/12/12 12:19:37;;;;;;;0.10;0.10;;;;;;;10.68;100.00;98016.06;5115307;28;20189;-53
2023/12/12 12:22:25;;;;;;;0.00;0.00;;;;;;;10.37;100.00;97996.56;5114991;28;20195;-53
2023/12/12 12:25:12;;;;;;;0.00;0.00;;;;;;;10.56;100.00;97996.75;5115141;28;20194;-53
2023/12/12 12:28:00;;;;;;;0.00;0.00;;;;;;;10.64;100.00;97990.81;5115163;28;20190;-53
2023/12/12 12:30:48;;;;;;;0.00;0.00;;;;;;;10.74;100.00;97989.09;5114858;28;20217;-52
2023/12/12 12:33:37;;;;;;;0.00;0.00;;;;;;;10.43;100.00;97983.69;5114777;28;20201;-53
2023/12/12 12:36:36;;;;;;;0.00;0.00;;;;;;;10.44;100.00;97973.94;5115051;28;20328;-53
2023/12/12 12:39:24;;;;;;;0.03;0.03;;;;;;;10.32;100.00;97979.25;5114626;28;20230;-52
2023/12/12 12:42:12;;;;;;;0.00;0.00;;;;;;;10.14;100.00;97974.63;5114949;28;20237;-52
2023/12/12 12:45:00;;;;;;;0.00;0.00;;;;;;;10.35;100.00;97962.31;5113552;28;20198;-52
2023/12/12 12:47:47;;;;;;;0.00;0.00;;;;;;;10.39;100.00;97957.59;5114569;28;20195;-53
2023/12/12 12:50:34;;;;;;;0.00;0.00;;;;;;;10.86;100.00;97962.41;5114416;28;20484;-53
2023/12/12 12:53:21;;;;;;;0.00;0.00;;;;;;;12.49;100.00;97949.00;5114655;28;20194;-53
2023/12/12 12:56:09;;;;;;;0.00;0.00;;;;;;;12.77;100.00;97931.38;5114373;28;20260;-53
2023/12/12 12:58:56;;;;;;;0.00;0.00;;;;;;;12.54;100.00;97930.81;5113259;28;20202;-53
2023/12/12 13:01:44;;;;;;;0.10;0.10;;;;;;;11.92;100.00;97918.78;5114607;28;20313;-53
2023/12/12 13:04:32;;;;;;;0.10;0.10;;;;;;;11.80;100.00;97930.50;5114304;28;20232;-52
2023/12/12 13:07:21;;;;;;;0.10;0.10;;;;;;;11.03;100.00;97923.88;5114491;28;20352;-52